sensor_id;sensor_type;location;lat;lon;timestamp;temperature;humidity
22633;DHT22;11483;55.828;37.488;2023-07-31T00:00:12;18.30;99.90
22633;DHT22;11483;55.828;37.488;2023-07-31T00:02:38;18.40;99.90
22633;DHT22;11483;55.828;37.488;2023-07-31T00:05:04;18.40;99.90
22633;DHT22;11483;55.828;37.488;2023-07-31T00:07:30;18.40;99.90
22633;DHT22;11483;55.828;37.488;2023-07-31T00:09:56;18.30;99.90
22633;DHT22;11483;55.828;37.488;2023-07-31T00:12:24;18.10;99.90
22633;DHT22;11483;55.828;37.488;2023-07-31T00:14:50;18.00;99.90
22633;DHT22;11483;55.828;37.488;2023-07-31T00:17:17;18.00;99.90
22633;DHT22;11483;55.828;37.488;2023-07-31T00:19:43;17.90;99.90
22633;DHT22;11483;55.828;37.488;2023-07-31T00:22:09;17.90;99.90
22633;DHT22;11483;55.828;37.488;2023-07-31T00:24:35;17.80;99.90
22633;DHT22;11483;55.828;37.488;2023-07-31T00:27:00;17.70;99.90
22633;DHT22;11483;55.828;37.488;2023-07-31T00:29:26;17.60;99.90
22633;DHT22;11483;55.828;37.488;2023-07-31T00:31:52;17.60;99.90
22633;DHT22;11483;55.828;37.488;2023-07-31T00:34:18;17.50;99.90
22633;DHT22;11483;55.828;37.488;2023-07-31T00:36:43;17.50;99.90
22633;DHT22;11483;55.828;37.488;2023-07-31T00:39:09;17.40;99.90
22633;DHT22;11483;55.828;37.488;2023-07-31T00:41:35;17.40;99.90
22633;DHT22;11483;55.828;37.488;2023-07-31T00:44:01;17.30;99.90
22633;DHT22;11483;55.828;37.488;2023-07-31T00:46:27;17.20;99.90
22633;DHT22;11483;55.828;37.488;2023-07-31T00:48:52;17.20;99.90
22633;DHT22;11483;55.828;37.488;2023-07-31T00:51:18;17.10;99.90
22633;DHT22;11483;55.828;37.488;2023-07-31T00:53:45;17.10;99.90
22633;DHT22;11483;55.828;37.488;2023-07-31T00:56:12;17.10;99.90
22633;DHT22;11483;55.828;37.488;2023-07-31T00:58:39;17.20;99.90
22633;DHT22;11483;55.828;37.488;2023-07-31T01:01:06;17.20;99.90
22633;DHT22;11483;55.828;37.488;2023-07-31T01:03:32;17.20;99.90
22633;DHT22;11483;55.828;37.488;2023-07-31T01:11:53;17.40;99.90
22633;DHT22;11483;55.828;37.488;2023-07-31T01:14:21;17.50;99.90
22633;DHT22;11483;55.828;37.488;2023-07-31T01:16:47;17.40;99.90
22633;DHT22;11483;55.828;37.488;2023-07-31T01:19:15;17.40;99.90
22633;DHT22;11483;55.828;37.488;2023-07-31T01:27:23;17.10;99.90
22633;DHT22;11483;55.828;37.488;2023-07-31T01:30:21;17.20;99.90
22633;DHT22;11483;55.828;37.488;2023-07-31T01:32:49;17.30;99.90
22633;DHT22;11483;55.828;37.488;2023-07-31T01:35:17;17.50;99.90
22633;DHT22;11483;55.828;37.488;2023-07-31T01:37:43;17.60;99.90
22633;DHT22;11483;55.828;37.488;2023-07-31T01:40:09;17.80;99.90
22633;DHT22;11483;55.828;37.488;2023-07-31T01:42:35;17.90;99.90
22633;DHT22;11483;55.828;37.488;2023-07-31T01:45:01;17.90;99.90
22633;DHT22;11483;55.828;37.488;2023-07-31T01:47:26;17.80;99.90
22633;DHT22;11483;55.828;37.488;2023-07-31T01:49:52;17.70;99.90
22633;DHT22;11483;55.828;37.488;2023-07-31T01:52:18;17.60;99.90
22633;DHT22;11483;55.828;37.488;2023-07-31T01:54:44;17.50;99.90
22633;DHT22;11483;55.828;37.488;2023-07-31T01:57:10;17.40;99.90
22633;DHT22;11483;55.828;37.488;2023-07-31T01:59:35;17.40;99.90
22633;DHT22;11483;55.828;37.488;2023-07-31T02:02:01;17.40;99.90
22633;DHT22;11483;55.828;37.488;2023-07-31T02:04:27;17.50;99.90
22633;DHT22;11483;55.828;37.488;2023-07-31T02:06:53;17.50;99.90
22633;DHT22;11483;55.828;37.488;2023-07-31T02:09:19;17.50;99.90
22633;DHT22;11483;55.828;37.488;2023-07-31T02:11:45;17.50;99.90
22633;DHT22;11483;55.828;37.488;2023-07-31T02:14:11;17.50;99.90
22633;DHT22;11483;55.828;37.488;2023-07-31T02:16:36;17.50;99.90
22633;DHT22;11483;55.828;37.488;2023-07-31T02:19:02;17.50;99.90
22633;DHT22;11483;55.828;37.488;2023-07-31T02:21:28;17.50;99.90
22633;DHT22;11483;55.828;37.488;2023-07-31T02:23:54;17.60;99.90
22633;DHT22;11483;55.828;37.488;2023-07-31T02:26:20;17.60;99.90
22633;DHT22;11483;55.828;37.488;2023-07-31T02:28:46;17.60;99.90
22633;DHT22;11483;55.828;37.488;2023-07-31T02:31:12;17.50;99.90
22633;DHT22;11483;55.828;37.488;2023-07-31T02:33:38;17.50;99.90
22633;DHT22;11483;55.828;37.488;2023-07-31T02:36:04;17.40;99.90
22633;DHT22;11483;55.828;37.488;2023-07-31T02:38:29;17.40;99.90
22633;DHT22;11483;55.828;37.488;2023-07-31T02:40:55;17.40;99.90
22633;DHT22;11483;55.828;37.488;2023-07-31T02:43:21;17.40;99.90
22633;DHT22;11483;55.828;37.488;2023-07-31T02:45:51;17.50;99.90
22633;DHT22;11483;55.828;37.488;2023-07-31T02:48:18;17.50;99.90
22633;DHT22;11483;55.828;37.488;2023-07-31T02:50:44;17.40;99.90
22633;DHT22;11483;55.828;37.488;2023-07-31T02:53:10;17.40;99.90
22633;DHT22;11483;55.828;37.488;2023-07-31T02:55:36;17.40;99.90
22633;DHT22;11483;55.828;37.488;2023-07-31T02:58:02;17.40;99.90
22633;DHT22;11483;55.828;37.488;2023-07-31T03:00:28;17.50;99.90
22633;DHT22;11483;55.828;37.488;2023-07-31T03:02:54;17.50;99.90
22633;DHT22;11483;55.828;37.488;2023-07-31T03:05:19;17.60;99.90
22633;DHT22;11483;55.828;37.488;2023-07-31T03:07:45;17.60;99.90
22633;DHT22;11483;55.828;37.488;2023-07-31T03:10:11;17.70;99.90
22633;DHT22;11483;55.828;37.488;2023-07-31T03:12:37;17.70;99.90
22633;DHT22;11483;55.828;37.488;2023-07-31T03:15:03;17.70;99.90
22633;DHT22;11483;55.828;37.488;2023-07-31T03:17:30;17.70;99.90
22633;DHT22;11483;55.828;37.488;2023-07-31T03:19:56;17.60;99.90
22633;DHT22;11483;55.828;37.488;2023-07-31T03:22:21;17.50;99.90
22633;DHT22;11483;55.828;37.488;2023-07-31T03:24:47;17.50;99.90
22633;DHT22;11483;55.828;37.488;2023-07-31T03:27:13;17.50;99.90
22633;DHT22;11483;55.828;37.488;2023-07-31T03:29:39;17.50;99.90
22633;DHT22;11483;55.828;37.488;2023-07-31T03:32:05;17.50;99.90
22633;DHT22;11483;55.828;37.488;2023-07-31T03:34:31;17.50;99.90
22633;DHT22;11483;55.828;37.488;2023-07-31T03:36:58;17.60;99.90
22633;DHT22;11483;55.828;37.488;2023-07-31T03:39:24;17.50;99.90
22633;DHT22;11483;55.828;37.488;2023-07-31T03:41:49;17.50;99.90
22633;DHT22;11483;55.828;37.488;2023-07-31T03:44:15;17.50;99.90
22633;DHT22;11483;55.828;37.488;2023-07-31T03:46:41;17.50;99.90
22633;DHT22;11483;55.828;37.488;2023-07-31T03:49:07;17.50;99.90
22633;DHT22;11483;55.828;37.488;2023-07-31T03:51:33;17.60;99.90
22633;DHT22;11483;55.828;37.488;2023-07-31T03:53:59;17.80;99.90
22633;DHT22;11483;55.828;37.488;2023-07-31T03:56:25;17.90;99.90
22633;DHT22;11483;55.828;37.488;2023-07-31T03:58:51;18.10;99.90
22633;DHT22;11483;55.828;37.488;2023-07-31T04:01:17;18.20;99.90
22633;DHT22;11483;55.828;37.488;2023-07-31T04:03:43;18.30;99.90
22633;DHT22;11483;55.828;37.488;2023-07-31T04:06:09;18.40;99.90
22633;DHT22;11483;55.828;37.488;2023-07-31T04:08:35;18.50;99.90
22633;DHT22;11483;55.828;37.488;2023-07-31T04:11:01;18.50;99.90
22633;DHT22;11483;55.828;37.488;2023-07-31T04:13:29;18.60;99.90
22633;DHT22;11483;55.828;37.488;2023-07-31T04:15:55;18.70;99.90
22633;DHT22;11483;55.828;37.488;2023-07-31T04:18:24;18.90;99.90
22633;DHT22;11483;55.828;37.488;2023-07-31T04:20:50;19.00;99.90
22633;DHT22;11483;55.828;37.488;2023-07-31T04:23:16;19.10;99.90
22633;DHT22;11483;55.828;37.488;2023-07-31T04:25:42;19.20;99.90
22633;DHT22;11483;55.828;37.488;2023-07-31T04:28:07;19.20;99.90
22633;DHT22;11483;55.828;37.488;2023-07-31T04:30:33;19.30;99.90
22633;DHT22;11483;55.828;37.488;2023-07-31T04:32:59;19.30;99.90
22633;DHT22;11483;55.828;37.488;2023-07-31T04:35:25;19.40;99.90
22633;DHT22;11483;55.828;37.488;2023-07-31T04:37:51;19.50;99.90
22633;DHT22;11483;55.828;37.488;2023-07-31T04:40:17;19.50;99.90
22633;DHT22;11483;55.828;37.488;2023-07-31T04:42:42;19.60;99.90
22633;DHT22;11483;55.828;37.488;2023-07-31T04:45:09;19.70;99.90
22633;DHT22;11483;55.828;37.488;2023-07-31T04:47:35;19.80;99.90
22633;DHT22;11483;55.828;37.488;2023-07-31T04:50:01;19.90;99.90
22633;DHT22;11483;55.828;37.488;2023-07-31T04:52:26;19.90;99.90
22633;DHT22;11483;55.828;37.488;2023-07-31T04:54:52;20.00;99.90
22633;DHT22;11483;55.828;37.488;2023-07-31T04:57:18;20.10;99.90
22633;DHT22;11483;55.828;37.488;2023-07-31T04:59:44;20.10;99.90
22633;DHT22;11483;55.828;37.488;2023-07-31T05:02:12;20.20;99.90
22633;DHT22;11483;55.828;37.488;2023-07-31T05:04:38;20.20;99.90
22633;DHT22;11483;55.828;37.488;2023-07-31T05:07:04;20.20;99.90
22633;DHT22;11483;55.828;37.488;2023-07-31T05:09:30;20.30;99.90
22633;DHT22;11483;55.828;37.488;2023-07-31T05:11:56;20.30;99.90
22633;DHT22;11483;55.828;37.488;2023-07-31T05:14:22;20.40;99.90
22633;DHT22;11483;55.828;37.488;2023-07-31T05:16:48;20.50;99.90
22633;DHT22;11483;55.828;37.488;2023-07-31T05:19:13;20.50;99.90
22633;DHT22;11483;55.828;37.488;2023-07-31T05:21:40;20.50;99.90
22633;DHT22;11483;55.828;37.488;2023-07-31T05:24:06;20.70;99.90
22633;DHT22;11483;55.828;37.488;2023-07-31T05:26:31;20.70;99.90
22633;DHT22;11483;55.828;37.488;2023-07-31T05:28:57;20.70;99.90
22633;DHT22;11483;55.828;37.488;2023-07-31T05:31:24;20.80;99.90
22633;DHT22;11483;55.828;37.488;2023-07-31T05:33:50;20.90;99.90
22633;DHT22;11483;55.828;37.488;2023-07-31T05:36:17;21.00;99.90
22633;DHT22;11483;55.828;37.488;2023-07-31T05:38:43;21.00;99.90
22633;DHT22;11483;55.828;37.488;2023-07-31T05:41:12;21.10;99.90
22633;DHT22;11483;55.828;37.488;2023-07-31T05:43:38;21.10;99.90
22633;DHT22;11483;55.828;37.488;2023-07-31T05:46:04;21.20;99.90
22633;DHT22;11483;55.828;37.488;2023-07-31T05:48:30;21.30;99.90
22633;DHT22;11483;55.828;37.488;2023-07-31T05:50:56;21.30;99.90
22633;DHT22;11483;55.828;37.488;2023-07-31T05:53:22;21.40;99.90
22633;DHT22;11483;55.828;37.488;2023-07-31T05:55:48;21.40;99.90
22633;DHT22;11483;55.828;37.488;2023-07-31T05:58:13;21.50;99.90
22633;DHT22;11483;55.828;37.488;2023-07-31T06:00:39;21.60;99.90
22633;DHT22;11483;55.828;37.488;2023-07-31T06:03:06;21.70;99.90
22633;DHT22;11483;55.828;37.488;2023-07-31T06:05:32;21.80;99.90
22633;DHT22;11483;55.828;37.488;2023-07-31T06:07:58;21.90;99.90
22633;DHT22;11483;55.828;37.488;2023-07-31T06:10:24;22.00;99.90
22633;DHT22;11483;55.828;37.488;2023-07-31T06:12:50;22.10;99.90
22633;DHT22;11483;55.828;37.488;2023-07-31T06:15:16;22.20;99.90
22633;DHT22;11483;55.828;37.488;2023-07-31T06:17:43;22.30;99.90
22633;DHT22;11483;55.828;37.488;2023-07-31T06:20:09;22.40;99.90
22633;DHT22;11483;55.828;37.488;2023-07-31T06:22:35;22.50;99.90
22633;DHT22;11483;55.828;37.488;2023-07-31T06:25:01;22.70;99.90
22633;DHT22;11483;55.828;37.488;2023-07-31T06:27:27;22.70;99.90
22633;DHT22;11483;55.828;37.488;2023-07-31T06:29:53;22.80;99.90
22633;DHT22;11483;55.828;37.488;2023-07-31T06:32:19;22.80;99.90
22633;DHT22;11483;55.828;37.488;2023-07-31T06:34:45;22.90;99.90
22633;DHT22;11483;55.828;37.488;2023-07-31T06:37:11;22.90;99.90
22633;DHT22;11483;55.828;37.488;2023-07-31T06:39:37;22.90;99.90
22633;DHT22;11483;55.828;37.488;2023-07-31T06:42:03;22.90;99.90
22633;DHT22;11483;55.828;37.488;2023-07-31T06:44:29;23.10;99.90
22633;DHT22;11483;55.828;37.488;2023-07-31T06:46:55;23.10;99.90
22633;DHT22;11483;55.828;37.488;2023-07-31T06:49:21;23.20;99.90
22633;DHT22;11483;55.828;37.488;2023-07-31T06:51:47;23.30;99.90
22633;DHT22;11483;55.828;37.488;2023-07-31T06:54:13;23.40;99.90
22633;DHT22;11483;55.828;37.488;2023-07-31T06:56:39;23.50;99.90
22633;DHT22;11483;55.828;37.488;2023-07-31T06:59:04;23.60;99.90
22633;DHT22;11483;55.828;37.488;2023-07-31T07:01:30;23.70;99.90
22633;DHT22;11483;55.828;37.488;2023-07-31T07:03:56;23.90;99.90
22633;DHT22;11483;55.828;37.488;2023-07-31T07:06:22;24.00;99.90
22633;DHT22;11483;55.828;37.488;2023-07-31T07:08:48;24.10;99.90
22633;DHT22;11483;55.828;37.488;2023-07-31T07:11:14;24.10;99.90
22633;DHT22;11483;55.828;37.488;2023-07-31T07:13:40;24.20;99.90
22633;DHT22;11483;55.828;37.488;2023-07-31T07:16:06;24.30;99.90
22633;DHT22;11483;55.828;37.488;2023-07-31T07:18:32;24.30;99.90
22633;DHT22;11483;55.828;37.488;2023-07-31T07:20:58;24.40;99.90
22633;DHT22;11483;55.828;37.488;2023-07-31T07:23:24;24.30;99.90
22633;DHT22;11483;55.828;37.488;2023-07-31T07:25:50;24.40;99.90
22633;DHT22;11483;55.828;37.488;2023-07-31T07:28:16;24.40;99.90
22633;DHT22;11483;55.828;37.488;2023-07-31T07:30:42;24.70;99.90
22633;DHT22;11483;55.828;37.488;2023-07-31T07:33:08;24.70;99.90
22633;DHT22;11483;55.828;37.488;2023-07-31T07:35:35;24.70;99.90
22633;DHT22;11483;55.828;37.488;2023-07-31T07:38:02;24.80;99.90
22633;DHT22;11483;55.828;37.488;2023-07-31T07:40:28;24.70;99.90
22633;DHT22;11483;55.828;37.488;2023-07-31T07:42:54;24.60;99.90
22633;DHT22;11483;55.828;37.488;2023-07-31T07:45:19;24.50;99.90
22633;DHT22;11483;55.828;37.488;2023-07-31T07:47:45;24.40;99.90
22633;DHT22;11483;55.828;37.488;2023-07-31T07:50:11;24.40;99.90
22633;DHT22;11483;55.828;37.488;2023-07-31T07:52:37;24.40;99.90
22633;DHT22;11483;55.828;37.488;2023-07-31T07:55:03;24.60;99.90
22633;DHT22;11483;55.828;37.488;2023-07-31T07:57:29;24.70;99.90
22633;DHT22;11483;55.828;37.488;2023-07-31T07:59:55;24.90;99.90
22633;DHT22;11483;55.828;37.488;2023-07-31T08:02:22;25.10;99.90
22633;DHT22;11483;55.828;37.488;2023-07-31T08:04:48;25.20;99.90
22633;DHT22;11483;55.828;37.488;2023-07-31T08:07:14;25.30;99.90
22633;DHT22;11483;55.828;37.488;2023-07-31T08:09:40;25.40;99.90
22633;DHT22;11483;55.828;37.488;2023-07-31T08:12:07;25.60;99.90
22633;DHT22;11483;55.828;37.488;2023-07-31T08:14:32;25.80;99.90
22633;DHT22;11483;55.828;37.488;2023-07-31T08:16:58;25.70;99.40
22633;DHT22;11483;55.828;37.488;2023-07-31T08:19:24;25.50;98.70
22633;DHT22;11483;55.828;37.488;2023-07-31T08:21:50;25.40;98.20
22633;DHT22;11483;55.828;37.488;2023-07-31T08:24:15;25.50;98.10
22633;DHT22;11483;55.828;37.488;2023-07-31T08:26:41;25.80;98.50
22633;DHT22;11483;55.828;37.488;2023-07-31T08:29:07;26.00;98.80
22633;DHT22;11483;55.828;37.488;2023-07-31T08:31:33;26.00;98.30
22633;DHT22;11483;55.828;37.488;2023-07-31T08:34:00;25.80;98.10
22633;DHT22;11483;55.828;37.488;2023-07-31T08:36:25;25.50;96.00
22633;DHT22;11483;55.828;37.488;2023-07-31T08:38:51;25.40;96.50
22633;DHT22;11483;55.828;37.488;2023-07-31T08:41:17;25.40;96.20
22633;DHT22;11483;55.828;37.488;2023-07-31T08:43:44;25.70;96.90
22633;DHT22;11483;55.828;37.488;2023-07-31T08:46:10;25.70;95.60
22633;DHT22;11483;55.828;37.488;2023-07-31T08:48:35;25.80;95.10
22633;DHT22;11483;55.828;37.488;2023-07-31T08:51:03;26.00;95.30
22633;DHT22;11483;55.828;37.488;2023-07-31T08:53:29;26.20;94.90
22633;DHT22;11483;55.828;37.488;2023-07-31T08:55:54;26.90;94.10
22633;DHT22;11483;55.828;37.488;2023-07-31T08:58:21;28.70;93.10
22633;DHT22;11483;55.828;37.488;2023-07-31T09:00:49;30.80;90.30
22633;DHT22;11483;55.828;37.488;2023-07-31T09:03:17;32.20;85.40
22633;DHT22;11483;55.828;37.488;2023-07-31T09:05:44;33.20;78.40
22633;DHT22;11483;55.828;37.488;2023-07-31T09:08:11;34.90;78.30
22633;DHT22;11483;55.828;37.488;2023-07-31T09:10:41;36.60;68.60
22633;DHT22;11483;55.828;37.488;2023-07-31T09:13:08;37.40;62.10
22633;DHT22;11483;55.828;37.488;2023-07-31T09:15:34;37.50;59.00
22633;DHT22;11483;55.828;37.488;2023-07-31T09:18:00;37.40;57.40
22633;DHT22;11483;55.828;37.488;2023-07-31T09:20:26;37.00;56.50
22633;DHT22;11483;55.828;37.488;2023-07-31T09:22:52;37.00;57.00
22633;DHT22;11483;55.828;37.488;2023-07-31T09:28:05;36.60;57.10
22633;DHT22;11483;55.828;37.488;2023-07-31T09:30:30;36.50;56.90
22633;DHT22;11483;55.828;37.488;2023-07-31T09:33:06;38.80;56.40
22633;DHT22;11483;55.828;37.488;2023-07-31T09:35:35;39.70;53.00
22633;DHT22;11483;55.828;37.488;2023-07-31T09:38:05;40.20;51.10
22633;DHT22;11483;55.828;37.488;2023-07-31T09:40:33;39.90;49.40
22633;DHT22;11483;55.828;37.488;2023-07-31T09:43:01;39.70;49.60
22633;DHT22;11483;55.828;37.488;2023-07-31T09:45:27;39.60;49.70
22633;DHT22;11483;55.828;37.488;2023-07-31T09:47:55;40.90;48.50
22633;DHT22;11483;55.828;37.488;2023-07-31T09:50:22;40.80;47.60
22633;DHT22;11483;55.828;37.488;2023-07-31T09:52:49;39.90;47.90
22633;DHT22;11483;55.828;37.488;2023-07-31T09:55:15;38.20;48.70
22633;DHT22;11483;55.828;37.488;2023-07-31T09:57:43;37.70;49.50
22633;DHT22;11483;55.828;37.488;2023-07-31T10:00:14;36.10;50.50
22633;DHT22;11483;55.828;37.488;2023-07-31T10:02:41;34.20;52.40
22633;DHT22;11483;55.828;37.488;2023-07-31T10:05:07;32.80;54.80
22633;DHT22;11483;55.828;37.488;2023-07-31T10:07:43;33.90;56.00
22633;DHT22;11483;55.828;37.488;2023-07-31T10:10:11;33.50;54.70
22633;DHT22;11483;55.828;37.488;2023-07-31T10:12:38;32.40;55.50
22633;DHT22;11483;55.828;37.488;2023-07-31T10:15:04;31.00;57.00
22633;DHT22;11483;55.828;37.488;2023-07-31T10:17:32;30.00;58.70
22633;DHT22;11483;55.828;37.488;2023-07-31T10:19:59;29.30;61.00
22633;DHT22;11483;55.828;37.488;2023-07-31T10:22:27;28.90;62.30
22633;DHT22;11483;55.828;37.488;2023-07-31T10:24:55;28.70;63.20
22633;DHT22;11483;55.828;37.488;2023-07-31T10:27:23;29.60;63.00
22633;DHT22;11483;55.828;37.488;2023-07-31T10:29:48;31.40;62.20
22633;DHT22;11483;55.828;37.488;2023-07-31T10:32:17;34.00;59.60
22633;DHT22;11483;55.828;37.488;2023-07-31T10:34:43;35.70;56.30
22633;DHT22;11483;55.828;37.488;2023-07-31T10:37:29;35.40;55.10
22633;DHT22;11483;55.828;37.488;2023-07-31T10:40:00;34.80;53.70
22633;DHT22;11483;55.828;37.488;2023-07-31T10:42:47;34.20;54.40
22633;DHT22;11483;55.828;37.488;2023-07-31T10:45:13;33.80;53.80
22633;DHT22;11483;55.828;37.488;2023-07-31T10:47:44;32.80;54.90
22633;DHT22;11483;55.828;37.488;2023-07-31T10:50:20;31.70;55.60
22633;DHT22;11483;55.828;37.488;2023-07-31T10:52:51;31.50;56.50
22633;DHT22;11483;55.828;37.488;2023-07-31T10:57:54;30.70;58.90
22633;DHT22;11483;55.828;37.488;2023-07-31T11:00:22;30.70;59.00
22633;DHT22;11483;55.828;37.488;2023-07-31T11:03:03;30.80;58.80
22633;DHT22;11483;55.828;37.488;2023-07-31T11:06:01;30.90;59.60
22633;DHT22;11483;55.828;37.488;2023-07-31T11:08:43;30.70;60.00
22633;DHT22;11483;55.828;37.488;2023-07-31T11:11:11;30.40;60.00
22633;DHT22;11483;55.828;37.488;2023-07-31T11:13:50;30.20;61.10
22633;DHT22;11483;55.828;37.488;2023-07-31T11:16:22;30.10;62.00
22633;DHT22;11483;55.828;37.488;2023-07-31T11:18:49;29.80;62.30
22633;DHT22;11483;55.828;37.488;2023-07-31T11:21:23;29.60;63.40
22633;DHT22;11483;55.828;37.488;2023-07-31T11:23:52;29.50;62.80
22633;DHT22;11483;55.828;37.488;2023-07-31T11:26:19;29.70;63.60
22633;DHT22;11483;55.828;37.488;2023-07-31T11:28:47;30.10;63.00
22633;DHT22;11483;55.828;37.488;2023-07-31T11:31:13;30.80;61.90
22633;DHT22;11483;55.828;37.488;2023-07-31T11:33:39;31.40;61.00
22633;DHT22;11483;55.828;37.488;2023-07-31T11:36:05;32.20;59.80
22633;DHT22;11483;55.828;37.488;2023-07-31T11:38:32;33.30;60.00
22633;DHT22;11483;55.828;37.488;2023-07-31T11:41:03;33.40;58.20
22633;DHT22;11483;55.828;37.488;2023-07-31T11:43:31;32.90;58.00
22633;DHT22;11483;55.828;37.488;2023-07-31T11:45:58;32.20;58.90
22633;DHT22;11483;55.828;37.488;2023-07-31T11:48:29;31.40;59.80
22633;DHT22;11483;55.828;37.488;2023-07-31T11:51:01;30.50;60.00
22633;DHT22;11483;55.828;37.488;2023-07-31T11:53:38;29.50;62.30
22633;DHT22;11483;55.828;37.488;2023-07-31T11:56:04;28.90;65.00
22633;DHT22;11483;55.828;37.488;2023-07-31T11:58:32;28.50;65.70
22633;DHT22;11483;55.828;37.488;2023-07-31T12:00:58;28.10;66.40
22633;DHT22;11483;55.828;37.488;2023-07-31T12:03:25;27.50;68.20
22633;DHT22;11483;55.828;37.488;2023-07-31T12:05:50;27.10;70.00
22633;DHT22;11483;55.828;37.488;2023-07-31T12:08:21;26.70;71.60
22633;DHT22;11483;55.828;37.488;2023-07-31T12:10:47;26.40;71.60
22633;DHT22;11483;55.828;37.488;2023-07-31T12:13:23;26.10;73.00
22633;DHT22;11483;55.828;37.488;2023-07-31T12:15:49;25.90;73.70
22633;DHT22;11483;55.828;37.488;2023-07-31T12:18:19;25.80;74.80
22633;DHT22;11483;55.828;37.488;2023-07-31T12:20:47;25.70;76.00
22633;DHT22;11483;55.828;37.488;2023-07-31T12:23:22;25.80;76.90
22633;DHT22;11483;55.828;37.488;2023-07-31T12:26:14;25.70;76.90
22633;DHT22;11483;55.828;37.488;2023-07-31T12:31:12;25.70;78.10
22633;DHT22;11483;55.828;37.488;2023-07-31T12:33:40;25.70;78.90
22633;DHT22;11483;55.828;37.488;2023-07-31T12:36:18;25.70;79.00
22633;DHT22;11483;55.828;37.488;2023-07-31T12:38:45;25.80;79.50
22633;DHT22;11483;55.828;37.488;2023-07-31T12:41:12;26.00;79.30
22633;DHT22;11483;55.828;37.488;2023-07-31T12:43:40;26.20;79.20
22633;DHT22;11483;55.828;37.488;2023-07-31T12:46:06;26.60;79.00
22633;DHT22;11483;55.828;37.488;2023-07-31T12:48:37;27.60;78.00
22633;DHT22;11483;55.828;37.488;2023-07-31T12:51:03;29.30;76.40
22633;DHT22;11483;55.828;37.488;2023-07-31T12:53:29;30.80;72.50
22633;DHT22;11483;55.828;37.488;2023-07-31T12:55:56;31.40;69.50
22633;DHT22;11483;55.828;37.488;2023-07-31T12:58:22;31.80;68.40
22633;DHT22;11483;55.828;37.488;2023-07-31T13:00:48;32.60;67.20
22633;DHT22;11483;55.828;37.488;2023-07-31T13:03:14;33.10;66.00
22633;DHT22;11483;55.828;37.488;2023-07-31T13:05:40;33.20;64.60
22633;DHT22;11483;55.828;37.488;2023-07-31T13:08:06;33.30;65.10
22633;DHT22;11483;55.828;37.488;2023-07-31T13:10:33;33.20;62.40
22633;DHT22;11483;55.828;37.488;2023-07-31T13:12:58;32.80;62.40
22633;DHT22;11483;55.828;37.488;2023-07-31T13:15:24;32.50;62.80
22633;DHT22;11483;55.828;37.488;2023-07-31T13:17:50;32.10;63.70
22633;DHT22;11483;55.828;37.488;2023-07-31T13:20:16;31.60;63.20
22633;DHT22;11483;55.828;37.488;2023-07-31T13:22:42;31.10;64.40
22633;DHT22;11483;55.828;37.488;2023-07-31T13:25:08;30.70;65.60
22633;DHT22;11483;55.828;37.488;2023-07-31T13:27:35;30.30;66.40
22633;DHT22;11483;55.828;37.488;2023-07-31T13:30:02;29.90;66.90
22633;DHT22;11483;55.828;37.488;2023-07-31T13:32:29;29.40;67.60
22633;DHT22;11483;55.828;37.488;2023-07-31T13:34:55;28.90;69.00
22633;DHT22;11483;55.828;37.488;2023-07-31T13:37:21;28.30;72.30
22633;DHT22;11483;55.828;37.488;2023-07-31T13:39:47;27.50;76.30
22633;DHT22;11483;55.828;37.488;2023-07-31T13:42:13;26.80;78.80
22633;DHT22;11483;55.828;37.488;2023-07-31T13:44:39;26.20;80.20
22633;DHT22;11483;55.828;37.488;2023-07-31T13:47:06;25.80;81.70
22633;DHT22;11483;55.828;37.488;2023-07-31T13:49:32;25.40;83.00
22633;DHT22;11483;55.828;37.488;2023-07-31T13:51:58;25.20;84.70
22633;DHT22;11483;55.828;37.488;2023-07-31T13:54:24;25.00;85.90
22633;DHT22;11483;55.828;37.488;2023-07-31T13:56:51;24.80;87.30
22633;DHT22;11483;55.828;37.488;2023-07-31T13:59:17;24.70;87.90
22633;DHT22;11483;55.828;37.488;2023-07-31T14:01:44;24.60;88.90
22633;DHT22;11483;55.828;37.488;2023-07-31T14:04:10;24.60;90.00
22633;DHT22;11483;55.828;37.488;2023-07-31T14:06:36;24.60;90.50
22633;DHT22;11483;55.828;37.488;2023-07-31T14:09:02;24.60;91.10
22633;DHT22;11483;55.828;37.488;2023-07-31T14:11:30;24.60;91.60
22633;DHT22;11483;55.828;37.488;2023-07-31T14:13:55;24.70;91.60
22633;DHT22;11483;55.828;37.488;2023-07-31T14:16:22;24.80;91.80
22633;DHT22;11483;55.828;37.488;2023-07-31T14:18:48;24.80;92.10
22633;DHT22;11483;55.828;37.488;2023-07-31T14:21:14;24.80;92.30
22633;DHT22;11483;55.828;37.488;2023-07-31T14:23:40;25.00;92.30
22633;DHT22;11483;55.828;37.488;2023-07-31T14:26:06;25.20;92.40
22633;DHT22;11483;55.828;37.488;2023-07-31T14:28:32;25.40;92.20
22633;DHT22;11483;55.828;37.488;2023-07-31T14:30:58;25.60;92.30
22633;DHT22;11483;55.828;37.488;2023-07-31T14:33:24;25.80;92.30
22633;DHT22;11483;55.828;37.488;2023-07-31T14:35:50;26.00;91.90
22633;DHT22;11483;55.828;37.488;2023-07-31T14:38:16;26.00;91.80
22633;DHT22;11483;55.828;37.488;2023-07-31T14:40:42;26.00;92.20
22633;DHT22;11483;55.828;37.488;2023-07-31T14:43:14;25.90;92.50
22633;DHT22;11483;55.828;37.488;2023-07-31T14:45:40;26.00;92.70
22633;DHT22;11483;55.828;37.488;2023-07-31T14:48:06;25.90;93.00
22633;DHT22;11483;55.828;37.488;2023-07-31T14:50:32;25.90;93.20
22633;DHT22;11483;55.828;37.488;2023-07-31T14:52:58;25.90;93.40
22633;DHT22;11483;55.828;37.488;2023-07-31T14:55:25;25.90;93.70
22633;DHT22;11483;55.828;37.488;2023-07-31T14:57:51;25.90;93.90
22633;DHT22;11483;55.828;37.488;2023-07-31T15:00:17;26.10;94.10
22633;DHT22;11483;55.828;37.488;2023-07-31T15:02:42;26.30;93.70
22633;DHT22;11483;55.828;37.488;2023-07-31T15:05:08;26.50;93.80
22633;DHT22;11483;55.828;37.488;2023-07-31T15:07:35;27.10;93.40
22633;DHT22;11483;55.828;37.488;2023-07-31T15:10:02;28.40;93.10
22633;DHT22;11483;55.828;37.488;2023-07-31T15:12:28;29.60;91.30
22633;DHT22;11483;55.828;37.488;2023-07-31T15:14:53;30.30;86.90
22633;DHT22;11483;55.828;37.488;2023-07-31T15:17:19;30.40;85.60
22633;DHT22;11483;55.828;37.488;2023-07-31T15:19:48;30.50;84.60
22633;DHT22;11483;55.828;37.488;2023-07-31T15:22:14;29.90;85.60
22633;DHT22;11483;55.828;37.488;2023-07-31T15:24:39;29.10;87.50
22633;DHT22;11483;55.828;37.488;2023-07-31T15:27:05;28.40;89.80
22633;DHT22;11483;55.828;37.488;2023-07-31T15:29:31;27.80;90.80
22633;DHT22;11483;55.828;37.488;2023-07-31T15:31:58;27.20;91.20